Αρχική σελίδα
METAR-TAF:

METAR-TAF

Αεροδρόμια :

Βόλγκογκραντ, Ρωσία

γεωγραφικό πλάτος: 48-47N, γεωγραφικό μήκος: 044-22E, υψόμετρο: 145 μ

Παρών καιρός

Η αναφορά έγινε 23 λεπτά πριν, στις 17:00 UTC
Άνεμος 2 kt από Α
Θερμοκρασία 25°C
Υγρασία 21%
Πίεση 1012 hPa
Ορατότητα 10 χλμ και άνω
Δεν υπάρχουν νέφη με βάση κάτω από τα 1500 μ. και δεν υπάρχουν νέφη σωρειτομελανίτες.

METAR: URWW 181700Z 10001MPS CAVOK 25/01 Q1012 R06/010070 NOSIG

Χρόνος: 20:23 (17:23 UTC)

Πρόγνωση Καιρού

Η αναφορά έγινε 3 ώρες και 25 λεπτά πριν, στις 13:58 UTC
Η πρόγνωση ισχύει από τις 18 στις 15 UTC έως τις 18 στις 24 UTC
Άνεμος 6 kt από BA με ριπές μέχρι 16 kt
Ορατότητα 10 χλμ και άνω
Διάσπαρτα νέφη σε ύψος 4000 πόδια
Προσωρινά
από 18 στις 15 UTC έως τις 18 στις 24 UTC
Άνεμος 6 kt από Α με ριπές μέχρι 16 kt

TAF: URWW 181358Z 1815/1824 04003G08MPS 9999 SCT040 TEMPO 1815/1824 08003G08MPS

Μετεωρολογικές αναφορές και προγνώσεις για περισσότερα από 4000 αεροδρόμια (δελτία METAR και TAF).

Οι διαθέσιμοι σταθμοί απεικονίζονται στο χάρτη με κίτρινες και κόκκινες κουκκίδες.

Μετακινήστε το ποντίκι πάνω από τις κουκκίδες για να δείτε το όνομα του σταθμού.

Στη συνέχεια, κάντε κλικ για να δείτε τις μετεωρολογικές αναφορές και τις προγνώσεις καιρού.

Για να αλλάξετε το χάρτη: κάντε κλικ στα πράσινα κουμπιά με τον μαύρο σταυρό για να ζουμάρετε, στο πράσινο κουμπί με την παύλα για να αφαιρέσετε το ζουμ ή στα πράσινα βέλη για να αντιπαραβάλλετε χάρτες.


METAR-TAF: